Time;durP1;ratioP1;P1;durP2;ratioP2;P2;SDS_P1;SDS_P2;PMS_P1;PMS_P2;Temp;Humidity;BMP_temperature;BMP_pressure;BME280_temperature;BME280_humidity;BME280_pressure;Samples;Min_cycle;Max_cycle;Signal;HPM_P1;HPM_P2
2023/05/21 00:02:16;;;;;;;2.17;1.97;;;14.20;99.90;;;;;;4961069;28;20295;-91
2023/05/21 00:04:45;;;;;;;2.10;1.90;;;14.20;99.90;;;;;;4977188;28;20697;-92
2023/05/21 00:07:11;;;;;;;3.80;2.30;;;14.10;99.90;;;;;;4977507;28;20255;-94
2023/05/21 00:09:37;;;;;;;3.87;2.10;;;14.10;99.90;;;;;;4979377;28;20237;-92
2023/05/21 00:12:04;;;;;;;3.03;2.73;;;14.10;99.90;;;;;;4958762;28;20304;-93
2023/05/21 00:14:30;;;;;;;2.43;2.03;;;14.10;99.90;;;;;;4993306;28;20251;-93
2023/05/21 00:16:56;;;;;;;2.23;1.80;;;14.10;99.90;;;;;;4961848;28;20714;-92
2023/05/21 00:19:22;;;;;;;2.73;2.10;;;14.10;99.90;;;;;;4992360;28;20683;-91
2023/05/21 00:21:48;;;;;;;2.43;1.73;;;14.10;99.90;;;;;;4967227;28;20199;-91
2023/05/21 00:24:14;;;;;;;4.87;2.53;;;14.00;99.90;;;;;;4954458;28;20181;-93
2023/05/21 00:26:40;;;;;;;2.70;2.50;;;14.10;99.90;;;;;;4978737;28;20220;-92
2023/05/21 00:29:06;;;;;;;2.30;2.07;;;14.10;99.90;;;;;;4948271;28;20220;-94
2023/05/21 00:31:32;;;;;;;7.43;2.47;;;14.10;99.90;;;;;;4946729;28;20224;-95
2023/05/21 00:33:58;;;;;;;3.60;2.57;;;14.10;99.90;;;;;;4961098;28;20249;-93
2023/05/21 00:36:24;;;;;;;4.00;2.13;;;14.10;99.90;;;;;;4953897;28;20192;-93
2023/05/21 00:38:50;;;;;;;2.57;2.20;;;14.10;99.90;;;;;;4960566;28;20258;-93
2023/05/21 00:41:18;;;;;;;4.67;3.23;;;14.00;99.90;;;;;;4979040;28;20262;-92
2023/05/21 00:43:45;;;;;;;2.57;1.93;;;14.00;99.90;;;;;;4977459;28;20213;-91
2023/05/21 00:46:16;;;;;;;3.47;2.10;;;14.10;99.90;;;;;;4969124;28;20228;-92
2023/05/21 00:48:44;;;;;;;3.03;2.73;;;14.10;99.90;;;;;;4985369;28;20211;-91
2023/05/21 00:51:11;;;;;;;5.17;2.53;;;14.10;99.90;;;;;;4961896;28;20219;-93
2023/05/21 00:53:37;;;;;;;1.70;1.60;;;14.10;99.90;;;;;;4976152;28;20336;-92
2023/05/21 00:56:04;;;;;;;3.83;2.67;;;14.10;99.90;;;;;;4977255;28;20212;-91
2023/05/21 00:58:32;;;;;;;2.47;2.27;;;14.10;99.90;;;;;;4976027;28;20221;-93
2023/05/21 01:01:02;;;;;;;2.40;2.07;;;14.20;99.90;;;;;;4961600;28;20228;-92
2023/05/21 01:03:37;;;;;;;4.43;2.93;;;14.20;99.90;;;;;;4961730;28;20181;-91
2023/05/21 01:06:07;;;;;;;5.57;2.33;;;14.10;99.90;;;;;;4958912;28;20216;-92
2023/05/21 01:08:36;;;;;;;2.47;2.27;;;14.10;99.90;;;;;;4978793;28;20212;-93
2023/05/21 01:11:03;;;;;;;2.53;2.33;;;14.10;99.90;;;;;;4976157;28;20220;-92
2023/05/21 01:13:31;;;;;;;7.37;3.07;;;14.10;99.90;;;;;;4959533;28;20224;-92
2023/05/21 01:15:58;;;;;;;7.93;3.60;;;14.10;99.90;;;;;;4944366;28;20254;-92
2023/05/21 01:18:25;;;;;;;3.47;3.07;;;14.10;99.90;;;;;;4976965;28;20244;-92
2023/05/21 01:20:52;;;;;;;4.10;3.00;;;14.20;99.90;;;;;;4958711;28;20745;-93
2023/05/21 01:23:19;;;;;;;3.20;2.90;;;14.20;99.90;;;;;;4975631;28;20219;-94
2023/05/21 01:25:45;;;;;;;4.53;3.10;;;14.20;99.90;;;;;;4984501;28;20221;-93
2023/05/21 01:28:12;;;;;;;5.73;3.27;;;14.20;99.90;;;;;;4984328;28;20228;-92
2023/05/21 01:30:40;;;;;;;7.80;2.80;;;14.20;99.90;;;;;;4978746;28;20185;-93
2023/05/21 01:33:27;;;;;;;5.30;3.23;;;14.20;99.90;;;;;;4981395;28;21009;-93
2023/05/21 01:35:54;;;;;;;3.70;2.70;;;14.20;99.90;;;;;;4980826;28;20773;-93
2023/05/21 01:38:34;;;;;;;4.73;3.13;;;14.10;99.90;;;;;;4980717;28;21255;-91
2023/05/21 01:41:09;;;;;;;3.67;2.80;;;14.10;99.90;;;;;;4979255;28;20240;-91
2023/05/21 01:43:38;;;;;;;6.87;2.57;;;14.00;99.90;;;;;;4997232;28;20212;-93
2023/05/21 01:46:05;;;;;;;7.40;3.37;;;14.00;99.90;;;;;;4979797;28;20551;-92
2023/05/21 01:48:32;;;;;;;4.70;2.70;;;14.00;99.90;;;;;;4981650;28;20641;-92
2023/05/21 01:51:01;;;;;;;4.10;2.83;;;14.00;99.90;;;;;;4971909;28;20247;-93
2023/05/21 01:53:27;;;;;;;4.43;2.87;;;14.00;99.90;;;;;;4980910;28;20291;-92
2023/05/21 01:55:53;;;;;;;3.70;2.53;;;14.00;99.90;;;;;;4948036;28;20587;-92
2023/05/21 01:58:20;;;;;;;9.47;2.83;;;13.90;99.90;;;;;;4964548;28;20267;-92
2023/05/21 02:00:46;;;;;;;2.60;2.30;;;13.90;99.90;;;;;;4980690;28;20223;-93
2023/05/21 02:03:13;;;;;;;11.63;3.03;;;13.80;99.90;;;;;;4980228;28;20586;-93
2023/05/21 02:05:39;;;;;;;2.93;2.00;;;13.80;99.90;;;;;;4962501;28;20208;-92
2023/05/21 02:08:07;;;;;;;7.83;3.03;;;13.80;99.90;;;;;;4964284;28;20487;-93
2023/05/21 02:10:33;;;;;;;11.33;2.37;;;13.70;99.90;;;;;;4964320;28;20942;-91
2023/05/21 02:12:59;;;;;;;3.37;1.77;;;13.70;99.90;;;;;;4963731;28;20244;-93
2023/05/21 02:15:25;;;;;;;4.60;2.90;;;13.70;99.90;;;;;;4964272;28;20213;-93
2023/05/21 02:17:54;;;;;;;4.70;3.17;;;13.70;99.90;;;;;;4963860;28;20212;-92
2023/05/21 02:20:21;;;;;;;4.03;1.93;;;13.60;99.90;;;;;;4977644;28;20212;-93
2023/05/21 02:22:47;;;;;;;5.00;2.27;;;13.60;99.90;;;;;;4979338;28;20227;-93
2023/05/21 02:25:15;;;;;;;2.17;2.00;;;13.60;99.90;;;;;;4962216;28;20619;-92
2023/05/21 02:27:42;;;;;;;9.33;3.60;;;13.60;99.90;;;;;;4979647;28;20553;-92
2023/05/21 02:30:12;;;;;;;2.13;1.97;;;13.60;99.90;;;;;;4977380;28;20223;-93
2023/05/21 02:32:41;;;;;;;4.20;2.30;;;13.50;99.90;;;;;;4977778;28;21313;-92
2023/05/21 02:35:07;;;;;;;4.10;2.30;;;13.60;99.90;;;;;;4961163;28;20235;-93
2023/05/21 02:37:34;;;;;;;3.20;2.33;;;13.60;99.90;;;;;;4979493;28;20592;-93
2023/05/21 02:40:02;;;;;;;3.73;2.50;;;13.60;99.90;;;;;;4977779;28;20176;-91
2023/05/21 02:42:31;;;;;;;6.20;2.40;;;13.60;99.90;;;;;;4978673;28;20173;-93
2023/05/21 02:44:57;;;;;;;2.47;2.23;;;13.60;99.90;;;;;;4961570;28;20228;-94
2023/05/21 02:47:23;;;;;;;2.53;2.07;;;13.50;99.90;;;;;;4977977;28;20615;-93
2023/05/21 02:49:50;;;;;;;3.93;2.13;;;13.50;99.90;;;;;;4946937;28;20227;-93
2023/05/21 02:52:21;;;;;;;6.07;1.60;;;13.50;99.90;;;;;;4976980;28;20223;-94
2023/05/21 02:54:47;;;;;;;5.43;2.20;;;13.50;99.90;;;;;;4978211;28;20533;-94
2023/05/21 02:57:13;;;;;;;3.07;1.93;;;13.40;99.90;;;;;;4978843;28;20190;-94
2023/05/21 02:59:38;;;;;;;1.57;1.47;;;13.40;99.90;;;;;;4964741;28;20284;-93
2023/05/21 03:02:05;;;;;;;2.30;1.77;;;13.50;99.90;;;;;;4961755;28;20310;-92
2023/05/21 03:04:31;;;;;;;4.80;2.07;;;13.40;99.90;;;;;;4995372;28;20219;-93
2023/05/21 03:07:00;;;;;;;3.40;1.67;;;13.40;99.90;;;;;;4962196;28;20189;-93
2023/05/21 03:09:26;;;;;;;2.43;2.23;;;13.30;99.90;;;;;;4993136;28;20236;-93
2023/05/21 03:11:52;;;;;;;3.63;1.77;;;13.30;99.90;;;;;;4962913;28;20232;-93
2023/05/21 03:14:18;;;;;;;6.47;2.17;;;13.30;99.90;;;;;;4960961;28;20291;-92
2023/05/21 03:16:44;;;;;;;4.83;1.23;;;13.20;99.90;;;;;;4961769;28;20321;-94
2023/05/21 03:19:11;;;;;;;2.40;2.20;;;13.20;99.90;;;;;;4961983;28;20221;-92
2023/05/21 03:21:37;;;;;;;1.50;1.40;;;13.20;99.90;;;;;;4978406;28;20197;-92
2023/05/21 03:24:04;;;;;;;10.03;2.60;;;13.30;99.90;;;;;;4977592;28;20208;-92
2023/05/21 03:26:30;;;;;;;3.13;2.13;;;13.30;99.90;;;;;;4977042;28;20208;-94
2023/05/21 03:29:00;;;;;;;2.70;1.77;;;13.20;99.90;;;;;;4978095;28;20227;-91
2023/05/21 03:31:26;;;;;;;7.27;2.67;;;13.20;99.90;;;;;;4977831;28;21399;-93
2023/05/21 03:33:52;;;;;;;2.67;1.73;;;13.20;99.90;;;;;;4977851;28;20266;-92
2023/05/21 03:36:19;;;;;;;4.00;3.40;;;13.20;99.90;;;;;;4994065;28;20192;-92
2023/05/21 03:38:44;;;;;;;11.80;2.10;;;13.20;99.90;;;;;;4976987;28;20208;-92
2023/05/21 03:41:11;;;;;;;3.43;2.70;;;13.20;99.90;;;;;;4977535;28;20219;-93
2023/05/21 03:43:37;;;;;;;4.47;1.83;;;13.20;99.90;;;;;;4978089;28;20216;-93
2023/05/21 03:46:03;;;;;;;3.67;1.77;;;13.20;99.90;;;;;;4975805;28;20212;-94
2023/05/21 03:48:31;;;;;;;3.27;1.97;;;13.20;99.90;;;;;;4976473;28;20272;-94
2023/05/21 03:50:57;;;;;;;3.10;2.67;;;13.20;99.90;;;;;;4953304;28;20224;-93
2023/05/21 03:53:23;;;;;;;3.63;2.80;;;13.20;99.90;;;;;;4976603;28;20220;-93
2023/05/21 03:55:53;;;;;;;5.77;3.27;;;13.10;99.90;;;;;;4974245;28;20208;-93
2023/05/21 03:58:22;;;;;;;5.40;3.20;;;13.00;99.90;;;;;;4961278;28;20227;-93
2023/05/21 04:00:49;;;;;;;3.97;2.03;;;12.90;99.90;;;;;;4960639;28;20240;-93
2023/05/21 04:03:15;;;;;;;4.17;2.93;;;12.90;99.90;;;;;;4977504;28;20180;-92
2023/05/21 04:05:41;;;;;;;8.47;1.97;;;12.90;99.90;;;;;;4976818;28;20212;-94
2023/05/21 04:08:07;;;;;;;2.73;2.33;;;12.90;99.90;;;;;;4979007;28;20225;-94
2023/05/21 04:10:33;;;;;;;3.17;1.97;;;12.90;99.90;;;;;;4978158;28;20735;-93
2023/05/21 04:12:59;;;;;;;4.27;2.27;;;12.90;99.90;;;;;;4961700;28;20216;-94
2023/05/21 04:15:26;;;;;;;4.67;2.47;;;12.90;99.90;;;;;;4961950;28;20188;-92
2023/05/21 04:17:53;;;;;;;5.00;1.90;;;12.90;99.90;;;;;;4947146;28;20226;-94
2023/05/21 04:20:19;;;;;;;2.07;1.87;;;12.90;99.90;;;;;;4976138;28;20212;-93
2023/05/21 04:22:45;;;;;;;2.37;1.87;;;12.90;99.90;;;;;;4976776;28;20567;-92
2023/05/21 04:25:11;;;;;;;2.83;1.47;;;13.00;99.90;;;;;;4992797;28;20212;-94
2023/05/21 04:27:37;;;;;;;5.30;1.90;;;13.00;99.90;;;;;;4977528;28;20219;-90
2023/05/21 04:30:04;;;;;;;12.10;2.70;;;13.10;99.90;;;;;;4976216;28;20240;-93
2023/05/21 04:32:32;;;;;;;3.33;1.33;;;13.10;99.90;;;;;;4960615;28;20223;-93
2023/05/21 04:34:59;;;;;;;3.17;1.80;;;13.10;99.90;;;;;;4976241;28;20342;-92
2023/05/21 04:37:28;;;;;;;2.03;1.60;;;13.10;99.90;;;;;;4992750;28;20254;-92
2023/05/21 04:39:54;;;;;;;3.47;1.23;;;13.10;99.90;;;;;;4968585;28;20184;-94
2023/05/21 04:42:23;;;;;;;4.77;2.10;;;13.10;99.90;;;;;;4946370;28;20195;-92
2023/05/21 04:44:49;;;;;;;2.70;1.70;;;13.10;99.90;;;;;;4977322;28;20224;-93
2023/05/21 04:47:18;;;;;;;1.80;1.63;;;13.20;99.90;;;;;;4976924;28;20315;-92
2023/05/21 04:49:45;;;;;;;2.93;2.20;;;13.10;99.90;;;;;;4960483;28;20276;-92
2023/05/21 04:52:11;;;;;;;6.83;2.67;;;13.00;99.90;;;;;;4974925;28;20224;-93
2023/05/21 04:54:37;;;;;;;3.43;2.80;;;13.00;99.90;;;;;;4978343;28;20191;-93
2023/05/21 04:57:04;;;;;;;5.73;3.40;;;13.00;99.90;;;;;;4951723;28;20215;-92
2023/05/21 04:59:30;;;;;;;3.87;2.50;;;13.00;99.90;;;;;;4974359;28;20780;-92
2023/05/21 05:01:56;;;;;;;8.30;2.43;;;13.00;99.90;;;;;;4943287;28;20307;-93
2023/05/21 05:04:22;;;;;;;5.00;1.90;;;13.00;99.90;;;;;;4943210;28;20250;-94
2023/05/21 05:06:48;;;;;;;4.00;2.13;;;13.10;99.90;;;;;;4961942;28;20199;-93
2023/05/21 05:09:14;;;;;;;3.27;1.77;;;13.20;99.90;;;;;;4965597;28;20267;-93
2023/05/21 05:11:40;;;;;;;1.83;1.70;;;13.20;99.90;;;;;;4978370;28;20239;-91
2023/05/21 05:14:06;;;;;;;2.20;1.60;;;13.30;99.90;;;;;;4964472;28;20224;-94
2023/05/21 05:16:32;;;;;;;2.63;1.43;;;13.30;99.90;;;;;;4980426;28;20232;-93
2023/05/21 05:18:59;;;;;;;6.03;2.47;;;13.40;99.90;;;;;;4994687;28;20184;-92
2023/05/21 05:21:24;;;;;;;4.37;2.17;;;13.50;99.90;;;;;;4979648;28;20666;-93
2023/05/21 05:23:51;;;;;;;18.03;2.30;;;13.50;99.90;;;;;;4963757;28;20213;-93
2023/05/21 05:26:17;;;;;;;6.93;1.73;;;13.60;99.90;;;;;;4964878;28;20219;-93
2023/05/21 05:28:44;;;;;;;12.70;2.43;;;13.70;99.90;;;;;;4979868;28;20215;-93
2023/05/21 05:31:10;;;;;;;17.53;2.47;;;13.80;99.90;;;;;;4964855;28;20216;-93
2023/05/21 05:33:36;;;;;;;2.03;1.53;;;13.70;99.90;;;;;;4962594;28;20279;-94
2023/05/21 05:36:02;;;;;;;8.90;2.43;;;13.70;99.90;;;;;;4979184;28;20220;-93
2023/05/21 05:38:28;;;;;;;4.80;1.87;;;13.80;99.90;;;;;;4979392;28;20677;-94
2023/05/21 05:40:54;;;;;;;1.80;1.43;;;13.80;99.90;;;;;;4947784;28;20582;-93
2023/05/21 05:43:20;;;;;;;3.97;1.63;;;13.90;99.90;;;;;;4947670;28;20215;-93
2023/05/21 05:45:46;;;;;;;3.23;1.80;;;13.90;99.90;;;;;;4979311;28;20749;-92
2023/05/21 05:48:11;;;;;;;2.67;1.73;;;14.00;99.90;;;;;;4949361;28;20192;-91
2023/05/21 05:50:40;;;;;;;5.70;2.67;;;14.00;99.90;;;;;;4963919;28;20226;-92
2023/05/21 05:53:07;;;;;;;2.67;2.07;;;14.10;99.90;;;;;;4980237;28;20250;-93
2023/05/21 05:55:33;;;;;;;6.90;1.30;;;14.20;99.90;;;;;;4965359;28;20236;-91
2023/05/21 05:57:59;;;;;;;5.17;1.87;;;14.10;99.90;;;;;;4964394;28;20203;-91
2023/05/21 06:00:25;;;;;;;5.77;1.77;;;14.20;99.90;;;;;;4980170;28;20188;-93
2023/05/21 06:02:51;;;;;;;3.27;1.67;;;14.20;99.90;;;;;;4960029;28;20310;-91
2023/05/21 06:05:17;;;;;;;5.20;2.03;;;14.20;99.90;;;;;;4980832;28;20225;-91
2023/05/21 06:07:42;;;;;;;2.93;1.60;;;14.10;99.90;;;;;;4980838;28;20219;-92
2023/05/21 06:10:09;;;;;;;2.00;1.73;;;14.20;99.90;;;;;;4949666;28;20231;-90
2023/05/21 06:12:35;;;;;;;4.23;2.13;;;14.20;99.90;;;;;;4980775;28;20211;-91
2023/05/21 06:15:01;;;;;;;1.97;1.63;;;14.30;99.90;;;;;;4979807;28;20208;-92
2023/05/21 06:17:27;;;;;;;1.87;1.70;;;14.30;99.90;;;;;;4977566;28;20571;-91
2023/05/21 06:19:52;;;;;;;5.20;1.87;;;14.40;99.90;;;;;;4947990;28;20286;-93
2023/05/21 06:22:21;;;;;;;5.50;2.53;;;14.50;99.90;;;;;;4946165;28;20207;-91
2023/05/21 06:24:47;;;;;;;1.73;1.53;;;14.50;99.90;;;;;;4964030;28;20252;-91
2023/05/21 06:27:12;;;;;;;5.40;2.10;;;14.50;99.90;;;;;;4956150;28;20185;-93
2023/05/21 06:29:41;;;;;;;2.17;1.87;;;14.50;99.90;;;;;;4952319;28;20223;-92
2023/05/21 06:32:10;;;;;;;3.03;1.83;;;14.50;99.90;;;;;;4965683;28;20292;-93
2023/05/21 06:34:38;;;;;;;4.27;2.30;;;14.50;99.90;;;;;;4982298;28;20216;-91
2023/05/21 06:37:05;;;;;;;2.53;1.90;;;14.50;99.90;;;;;;5002769;28;20649;-94
2023/05/21 06:39:39;;;;;;;2.87;1.80;;;14.40;99.90;;;;;;5011116;28;20180;-93
2023/05/21 06:42:10;;;;;;;1.87;1.67;;;14.40;99.90;;;;;;4996330;28;20208;-93
2023/05/21 06:44:42;;;;;;;2.67;1.20;;;14.40;99.90;;;;;;4972373;28;20989;-95
2023/05/21 06:47:13;;;;;;;3.00;1.97;;;14.40;99.90;;;;;;4988188;28;20223;-92
2023/05/21 06:49:48;;;;;;;2.13;1.73;;;14.50;99.90;;;;;;4991333;28;20242;-92
2023/05/21 06:52:18;;;;;;;1.93;1.60;;;14.50;99.90;;;;;;5003171;28;20231;-94
2023/05/21 06:55:17;;;;;;;1.20;1.03;;;14.50;99.90;;;;;;4981546;28;20197;-91
2023/05/21 06:58:10;;;;;;;2.13;1.40;;;14.50;99.90;;;;;;4985058;28;20252;-93
2023/05/21 07:00:57;;;;;;;8.80;2.73;;;14.70;99.90;;;;;;4991029;28;20191;-91
2023/05/21 07:03:23;;;;;;;2.57;1.40;;;14.80;99.90;;;;;;4988845;28;20255;-94
2023/05/21 07:05:59;;;;;;;3.30;1.50;;;15.00;99.90;;;;;;4991392;28;20221;-92
2023/05/21 07:08:28;;;;;;;3.50;1.43;;;15.00;99.90;;;;;;4977222;28;20224;-93
2023/05/21 07:10:55;;;;;;;4.50;2.27;;;15.00;99.90;;;;;;4986917;28;20232;-94
2023/05/21 07:13:22;;;;;;;4.63;2.00;;;15.30;99.90;;;;;;5002243;28;20242;-94
2023/05/21 07:15:48;;;;;;;2.03;1.53;;;15.40;99.90;;;;;;4972180;28;20355;-94
2023/05/21 07:18:17;;;;;;;3.07;2.03;;;15.80;99.90;;;;;;4984521;28;20210;-93
2023/05/21 07:20:46;;;;;;;4.37;1.83;;;16.30;99.90;;;;;;4985545;28;20304;-91
2023/05/21 07:23:12;;;;;;;2.67;1.97;;;16.80;99.90;;;;;;4985434;28;20282;-91
2023/05/21 07:25:38;;;;;;;2.27;1.73;;;17.40;99.90;;;;;;4986129;28;20254;-92
2023/05/21 07:28:04;;;;;;;5.90;2.60;;;18.60;99.90;;;;;;4985730;28;20192;-92
2023/05/21 07:30:30;;;;;;;2.47;2.00;;;19.70;99.90;;;;;;4980829;28;20177;-93
2023/05/21 07:32:56;;;;;;;2.00;1.37;;;19.80;99.90;;;;;;4981377;28;20228;-94
2023/05/21 07:35:23;;;;;;;2.53;2.17;;;19.70;99.90;;;;;;4969347;28;20235;-93
2023/05/21 07:37:49;;;;;;;2.60;2.07;;;20.00;99.90;;;;;;5000491;28;21130;-91
2023/05/21 07:40:15;;;;;;;1.90;1.70;;;20.20;99.90;;;;;;4959940;28;20271;-91
2023/05/21 07:42:40;;;;;;;3.23;2.20;;;20.80;99.90;;;;;;4960832;28;20208;-90
2023/05/21 07:45:07;;;;;;;4.07;2.30;;;21.10;99.90;;;;;;4977514;28;20224;-92
2023/05/21 07:47:32;;;;;;;2.97;2.20;;;20.80;99.90;;;;;;4961253;28;20216;-91
2023/05/21 07:49:58;;;;;;;2.17;1.77;;;19.70;99.90;;;;;;4977835;28;20248;-93
2023/05/21 07:52:24;;;;;;;3.50;1.93;;;20.30;99.90;;;;;;4946498;28;20310;-92
2023/05/21 07:54:50;;;;;;;2.33;1.63;;;20.80;99.90;;;;;;4978677;28;20699;-94
2023/05/21 07:57:16;;;;;;;2.67;1.87;;;22.00;99.90;;;;;;4962056;28;20193;-92
2023/05/21 07:59:42;;;;;;;5.10;2.40;;;22.40;99.90;;;;;;4978908;28;20216;-93
2023/05/21 08:02:07;;;;;;;2.67;1.83;;;22.80;99.90;;;;;;4978306;28;20587;-92
2023/05/21 08:04:33;;;;;;;4.73;1.97;;;23.20;99.90;;;;;;4954626;28;20240;-93
2023/05/21 08:06:59;;;;;;;5.37;2.13;;;23.20;99.90;;;;;;4963147;28;20196;-93
2023/05/21 08:09:25;;;;;;;4.40;2.23;;;22.70;99.90;;;;;;4976974;28;20703;-93
2023/05/21 08:11:50;;;;;;;2.83;1.97;;;21.90;99.90;;;;;;4945151;28;20231;-90
2023/05/21 08:14:16;;;;;;;2.28;1.90;;;21.10;99.90;;;;;;4977316;28;20697;-91
2023/05/21 08:16:43;;;;;;;4.90;2.20;;;21.10;99.90;;;;;;4961579;28;20248;-92
2023/05/21 08:19:09;;;;;;;2.90;1.67;;;21.30;99.90;;;;;;4944820;28;20238;-92
2023/05/21 08:21:35;;;;;;;2.20;1.80;;;21.20;99.90;;;;;;4960737;28;20207;-90
2023/05/21 08:24:01;;;;;;;4.83;1.73;;;19.90;99.90;;;;;;4959956;28;20223;-90
2023/05/21 08:26:27;;;;;;;2.50;1.83;;;19.40;99.90;;;;;;4973973;28;20239;-92
2023/05/21 08:28:53;;;;;;;3.77;2.97;;;19.40;99.90;;;;;;4958983;28;20226;-90
2023/05/21 08:31:20;;;;;;;2.67;1.93;;;19.00;99.90;;;;;;4962731;28;20295;-91
2023/05/21 08:33:52;;;;;;;3.93;1.93;;;18.60;99.90;;;;;;4977745;28;20735;-90
2023/05/21 08:36:18;;;;;;;2.00;1.70;;;18.40;99.90;;;;;;4972079;28;20315;-91
2023/05/21 08:38:45;;;;;;;1.60;1.10;;;18.30;99.90;;;;;;4961218;28;20295;-92
2023/05/21 08:41:11;;;;;;;5.10;2.53;;;17.90;99.90;;;;;;4977671;28;20300;-93
2023/05/21 08:43:38;;;;;;;1.87;1.77;;;17.90;99.90;;;;;;4961326;28;20236;-93
2023/05/21 08:46:07;;;;;;;6.67;1.80;;;17.70;99.90;;;;;;4977991;28;20203;-94
2023/05/21 08:48:35;;;;;;;3.10;1.53;;;17.90;99.90;;;;;;4964413;28;20188;-96
2023/05/21 08:51:02;;;;;;;2.50;1.47;;;18.00;99.90;;;;;;4978097;28;20216;-91
2023/05/21 08:53:34;;;;;;;2.20;1.53;;;18.10;99.90;;;;;;4981276;28;20731;-93
2023/05/21 08:56:06;;;;;;;2.23;1.40;;;18.20;99.90;;;;;;4988166;28;20216;-91
2023/05/21 08:58:38;;;;;;;1.57;1.47;;;18.40;99.90;;;;;;4987060;28;20736;-93
2023/05/21 09:01:04;;;;;;;4.63;1.73;;;18.70;99.90;;;;;;4984272;28;20255;-94
2023/05/21 09:03:31;;;;;;;1.77;1.43;;;19.40;99.90;;;;;;4978136;28;20229;-90
2023/05/21 09:06:09;;;;;;;1.80;1.67;;;19.50;99.90;;;;;;4964083;28;20729;-90
2023/05/21 09:08:38;;;;;;;3.03;1.83;;;19.90;99.90;;;;;;4988074;28;20220;-93
2023/05/21 09:11:07;;;;;;;3.50;1.37;;;20.50;99.90;;;;;;4998480;28;20227;-92
2023/05/21 09:13:33;;;;;;;6.17;2.17;;;20.70;99.90;;;;;;4979379;28;20251;-92
2023/05/21 09:15:59;;;;;;;4.90;2.00;;;20.50;99.90;;;;;;4981019;28;20649;-91
2023/05/21 09:18:31;;;;;;;2.37;1.47;;;20.70;99.90;;;;;;4993838;28;20181;-91
2023/05/21 09:21:30;;;;;;;2.17;1.77;;;20.40;99.90;;;;;;5007700;28;20255;-92
2023/05/21 09:23:57;;;;;;;4.60;1.83;;;20.90;99.90;;;;;;4996629;28;20560;-94
2023/05/21 09:26:24;;;;;;;3.80;1.57;;;20.60;99.90;;;;;;4993287;28;20918;-93
2023/05/21 09:28:51;;;;;;;1.13;1.03;;;20.40;99.90;;;;;;4996879;28;20216;-92
2023/05/21 09:31:28;;;;;;;6.83;1.60;;;20.00;99.90;;;;;;5009199;28;20227;-91
2023/05/21 09:33:54;;;;;;;2.00;1.27;;;20.00;99.90;;;;;;4999310;28;20214;-94
2023/05/21 09:36:23;;;;;;;2.90;1.70;;;20.30;99.90;;;;;;5001062;28;20176;-94
2023/05/21 09:39:00;;;;;;;4.83;2.00;;;20.00;99.90;;;;;;4982014;28;20362;-92
2023/05/21 09:41:36;;;;;;;2.20;1.60;;;18.80;99.90;;;;;;4998668;28;20212;-91
2023/05/21 09:44:06;;;;;;;1.60;1.50;;;18.90;99.90;;;;;;4989939;28;20218;-94
2023/05/21 09:46:49;;;;;;;1.83;1.50;;;19.50;99.90;;;;;;5008225;28;20227;-90
2023/05/21 09:49:25;;;;;;;3.23;2.00;;;19.70;99.90;;;;;;4986741;28;20226;-96
2023/05/21 09:51:59;;;;;;;4.20;1.40;;;20.50;99.90;;;;;;4991098;28;20179;-93
2023/05/21 09:54:34;;;;;;;2.07;1.87;;;20.40;99.90;;;;;;5010125;28;20179;-93
2023/05/21 09:57:04;;;;;;;2.73;1.73;;;20.10;99.90;;;;;;4990892;28;20299;-93
2023/05/21 09:59:55;;;;;;;4.60;2.00;;;20.10;99.90;;;;;;4973128;28;20219;-92
2023/05/21 10:02:22;;;;;;;2.00;1.40;;;20.60;99.90;;;;;;5017869;28;20399;-92
2023/05/21 10:04:50;;;;;;;3.53;1.60;;;20.60;99.90;;;;;;4993465;28;20270;-93
2023/05/21 10:07:24;;;;;;;2.53;1.80;;;21.00;99.90;;;;;;4995215;28;20235;-94
2023/05/21 10:09:56;;;;;;;2.90;1.77;;;21.10;99.90;;;;;;4994614;28;20795;-92
2023/05/21 10:12:24;;;;;;;2.80;1.33;;;20.60;99.90;;;;;;4985614;28;20200;-93
2023/05/21 10:15:00;;;;;;;4.43;2.17;;;20.40;99.90;;;;;;4985136;28;20235;-91
2023/05/21 10:17:29;;;;;;;5.47;1.50;;;19.90;99.90;;;;;;4985578;28;20219;-90
2023/05/21 10:19:57;;;;;;;1.50;1.40;;;19.80;99.90;;;;;;4981737;28;20805;-93
2023/05/21 10:22:27;;;;;;;2.27;1.90;;;20.10;99.90;;;;;;4982466;28;20224;-93
2023/05/21 10:24:56;;;;;;;2.23;1.53;;;20.20;99.90;;;;;;4983938;28;20601;-92
2023/05/21 10:27:22;;;;;;;2.33;1.97;;;19.80;99.90;;;;;;4965906;28;20195;-91
2023/05/21 10:29:52;;;;;;;4.00;1.60;;;19.90;99.90;;;;;;4969934;28;20251;-89
2023/05/21 10:32:23;;;;;;;4.20;1.90;;;19.80;99.90;;;;;;4975306;28;20258;-91
2023/05/21 10:35:13;;;;;;;1.50;1.40;;;19.80;99.90;;;;;;4992077;28;20217;-90
2023/05/21 10:37:48;;;;;;;2.20;1.67;;;20.10;99.90;;;;;;5005938;28;20688;-92
2023/05/21 10:40:14;;;;;;;1.43;1.30;;;20.10;99.90;;;;;;4984057;28;20221;-92
2023/05/21 10:42:50;;;;;;;2.93;1.70;;;20.00;99.90;;;;;;4992404;28;20188;-92
2023/05/21 10:45:51;;;;;;;2.43;1.40;;;19.80;99.90;;;;;;4987975;28;20230;-92
2023/05/21 10:48:56;;;;;;;3.50;1.40;;;19.10;99.90;;;;;;4994624;28;20208;-92
2023/05/21 10:51:52;;;;;;;2.47;1.90;;;19.60;99.90;;;;;;4983489;28;20472;-90
2023/05/21 10:54:31;;;;;;;3.40;1.50;;;19.30;99.90;;;;;;4989262;28;20271;-92
2023/05/21 10:57:20;;;;;;;1.60;1.50;;;19.10;99.90;;;;;;5000446;28;20236;-91
2023/05/21 10:59:51;;;;;;;1.70;1.60;;;19.30;99.90;;;;;;4994374;28;20299;-93
2023/05/21 11:02:19;;;;;;;4.77;2.33;;;18.90;99.90;;;;;;4986703;28;20259;-94
2023/05/21 11:04:47;;;;;;;3.53;1.50;;;18.50;99.90;;;;;;4982985;28;20255;-92
2023/05/21 11:07:14;;;;;;;3.03;1.73;;;18.80;99.90;;;;;;4982935;28;20304;-93
2023/05/21 11:09:45;;;;;;;6.23;1.73;;;18.40;99.90;;;;;;4984141;28;20264;-93
2023/05/21 11:12:16;;;;;;;3.43;1.47;;;18.30;99.90;;;;;;4956242;28;20221;-91
2023/05/21 11:15:03;;;;;;;4.27;2.17;;;18.80;99.90;;;;;;5011879;28;20223;-91
2023/05/21 11:17:40;;;;;;;2.43;1.70;;;18.60;99.90;;;;;;4987280;28;20751;-92
2023/05/21 11:20:15;;;;;;;1.47;1.37;;;18.60;99.90;;;;;;4980635;28;20398;-91
2023/05/21 11:22:41;;;;;;;2.27;1.30;;;18.20;99.90;;;;;;4966325;28;20223;-93
2023/05/21 11:25:14;;;;;;;2.60;1.50;;;18.30;99.90;;;;;;4971996;28;20864;-90
2023/05/21 11:27:41;;;;;;;4.67;2.00;;;18.60;99.90;;;;;;4986252;28;20228;-94
2023/05/21 11:30:16;;;;;;;2.77;2.27;;;18.60;99.90;;;;;;4979400;28;20219;-91
2023/05/21 11:33:12;;;;;;;1.77;1.40;;;18.60;99.90;;;;;;4993916;28;20243;-90
2023/05/21 11:35:46;;;;;;;2.23;1.80;;;18.80;99.90;;;;;;4990940;28;20204;-92
2023/05/21 11:38:16;;;;;;;4.57;1.80;;;18.80;99.90;;;;;;5008329;28;20244;-94
2023/05/21 11:40:54;;;;;;;5.50;1.87;;;18.70;99.90;;;;;;5002333;28;20223;-94
2023/05/21 11:43:22;;;;;;;4.23;1.60;;;18.90;99.90;;;;;;4980982;28;20664;-91
2023/05/21 11:45:51;;;;;;;2.87;1.67;;;18.80;99.90;;;;;;4983763;28;20181;-92
2023/05/21 11:48:19;;;;;;;4.40;2.47;;;18.80;99.90;;;;;;4988179;28;20300;-91
2023/05/21 11:50:44;;;;;;;1.47;1.37;;;18.70;99.90;;;;;;5005850;28;20719;-89
2023/05/21 11:53:11;;;;;;;2.90;1.80;;;18.70;99.90;;;;;;4962885;28;20272;-91
2023/05/21 11:55:46;;;;;;;3.57;1.93;;;18.40;99.90;;;;;;4960865;28;20227;-93
2023/05/21 11:58:13;;;;;;;5.83;1.73;;;18.30;99.90;;;;;;4977635;28;20223;-90
2023/05/21 12:00:39;;;;;;;2.07;1.73;;;18.20;99.90;;;;;;5001503;28;20203;-92
2023/05/21 12:03:11;;;;;;;2.80;1.70;;;18.50;99.90;;;;;;4986932;28;20635;-94
2023/05/21 12:05:53;;;;;;;3.47;2.43;;;18.30;99.90;;;;;;4968999;28;20236;-92
2023/05/21 12:08:32;;;;;;;4.43;1.70;;;18.30;99.90;;;;;;4986078;28;20233;-91
2023/05/21 12:11:00;;;;;;;2.03;1.83;;;18.00;99.90;;;;;;5000192;28;20695;-91
2023/05/21 12:13:30;;;;;;;2.70;1.90;;;18.20;99.90;;;;;;5004040;28;20219;-91
2023/05/21 12:16:01;;;;;;;2.87;1.90;;;18.40;99.90;;;;;;4995046;28;20188;-91
2023/05/21 12:18:30;;;;;;;3.37;1.97;;;18.20;99.90;;;;;;5004422;28;20610;-91
2023/05/21 12:20:56;;;;;;;4.47;2.47;;;18.10;99.90;;;;;;4983736;28;20231;-95
2023/05/21 12:23:31;;;;;;;3.43;2.17;;;18.20;99.90;;;;;;4981051;28;21149;-93
2023/05/21 12:25:58;;;;;;;2.20;1.77;;;18.10;99.90;;;;;;4984267;28;20281;-91
2023/05/21 12:28:24;;;;;;;7.13;2.10;;;18.20;99.90;;;;;;4990939;28;20307;-95
2023/05/21 12:30:50;;;;;;;6.53;1.80;;;18.20;99.90;;;;;;4987204;28;20253;-93
2023/05/21 12:33:18;;;;;;;7.07;2.33;;;18.20;99.90;;;;;;4963285;28;20234;-92
2023/05/21 12:35:48;;;;;;;4.67;2.13;;;18.30;99.90;;;;;;4978651;28;20707;-91
2023/05/21 12:38:15;;;;;;;4.37;2.77;;;18.20;99.90;;;;;;4991638;28;20242;-93
2023/05/21 12:40:42;;;;;;;6.97;3.77;;;18.10;99.90;;;;;;4989073;28;20254;-92
2023/05/21 12:43:08;;;;;;;3.13;2.23;;;17.90;99.90;;;;;;4989073;28;20215;-93
2023/05/21 12:45:35;;;;;;;7.20;2.00;;;18.10;99.90;;;;;;4990724;28;20293;-93
2023/05/21 12:48:02;;;;;;;3.03;2.03;;;18.00;99.90;;;;;;4981680;28;20212;-93
2023/05/21 12:50:28;;;;;;;6.77;3.03;;;18.10;99.90;;;;;;4984260;28;20220;-93
2023/05/21 12:52:57;;;;;;;3.07;2.27;;;18.20;99.90;;;;;;4992594;28;20234;-92
2023/05/21 12:55:24;;;;;;;5.00;2.33;;;18.00;99.90;;;;;;4994663;28;20244;-94